Aiken, TX (79221)

6:10 PM CDT on May 28, 2015 (GMT -0500)
Hale County | | Change Station
CLOSE
Current Station
Airport
Location: Plainview,
Elevation: 3373 ft
Nearby Weather Stations
Active Advisory: Tornado Watch

Elev 3373 ft 34.17 °N, 101.72 °W | Updated 15 minutes ago

Partly Cloudy
Partly Cloudy
61 °F
Feels Like 61 °F
N
12
Wind Variable Wind from South

Today
High -- | Low -- °F
--% Chance of Precip.
Yesterday
High -- | Low -- °F
Precip. -- in
6:36 AM 8:49 PM
Waxing Gibbous, 79% visible
Pressure 29.93 in
Visibility 10.0 miles
Clouds Clear
Dew Point 55 °F
Humidity 79%
Rainfall 0.94 in
Snow Depth Not available.
UV 4 out of 12
Pollen 4.20 out of 12
Air Quality Not available.
Flu Activity Sporadic
METAR KPVW 282255Z AUTO 17010KT 10SM CLR 16/13 A2993 RMK AO2 LTG DSNT SE T01620126

More Conditions Fewer Conditions

Pressure 29.93 in
Visibility 10.0 miles
Clouds Clear
Dew Point 55 °F
Humidity 79%
Rainfall 0.94 in
Snow Depth Not available.
UV 4 out of 12
Pollen 4.20 out of 12
Air Quality Not available.
Flu Activity Sporadic
METAR KPVW 282255Z AUTO 17010KT 10SM CLR 16/13 A2993 RMK AO2 LTG DSNT SE T01620126

More Conditions Fewer Conditions

10-Day Weather Forecast

Almanac

Astronomy

May. 28, 2015 Rise Set
Actual Time
Civil Twilight
Nautical Twilight
Astronomical Twilight
Moon
Length of Visible Light
Length of Day
Tomorrow will be .
, % of the Moon is Illuminated

Today's Extremes

State Highs State Lows

Community

WunderPhotos

Upload Photos

1,825,089 photos uploaded!

WunderBlogs® & News

Nearby

Air Quality

  Air Quality AQ Index Pollutant
Not available.

Snow Depth

Station Depth Elevation

Earthquake Activity

City Distance Mag. Time & Date
Minimum magnitude displayed is 2.5.

Coastal Water Temperatures

Place Temperature

Stations

Nearby Weather Stations

Station Location Temp. Windchill Dew Point Humidity Wind Precip. Elev Updated Type
                   
Tornado Watch
Statement as of 6:03 PM CDT on May 28, 2015

Tornado Watch 234 remains in effect until 800 PM CDT for the
following locations

TX
. Texas counties included are

Andrews Bailey Baylor
Borden Brewster Callahan
Cochran Coke Cottle
Crane Crockett Crosby
Culberson Dawson Dickens
Ector Fisher Floyd
Foard Gaines Garza
Glasscock Hale Hardeman
Haskell Hockley Howard
Irion Jeff Davis Jones
Kent King Knox
Lamb Loving Lubbock
Lynn Martin Midland
Mitchell Motley Nolan
Pecos Presidio Reagan
Reeves Runnels Schleicher
Scurry Shackelford Sterling
Stonewall Sutton Taylor
Terrell Terry Throckmorton
Tom Green Upton Val Verde
Ward Wilbarger Winkler
Yoakum